Sunday, January 21, 2018, 3:44 PM EST
Back to Local

KYNG, Youngstown-warren Reg Airprt

Location: Vienna, OH, United States Lat: 41.25
Local Time: 3:44 PM EST (20:44 GMT) Lon: -80.667
Time Zone: US/Eastern Elev: 1197 ft

Show me the last for .
Show Decoded

2018-01-21 14:51 METAR KYNG 211951Z 18004KT 5SM BR OVC018 07/05 A3003 RMK AO2 SLP175 T00670050 =
2018-01-21 14:39 METAR KYNG 211939Z 17006KT 4SM BR OVC018 07/05 A3003 =
2018-01-21 14:19 METAR KYNG 211919Z 18006KT 3SM BR BKN005 OVC013 06/05 A3003 RMK AO2 T00610050 =
2018-01-21 13:51 METAR KYNG 211851Z 18005KT 2SM BR OVC003 06/06 A3004 RMK AO2 SLP179 T00560056 =
2018-01-21 13:39 METAR KYNG 211839Z 16004KT 3/4SM BR OVC002 06/06 A3003 =
2018-01-21 12:51 METAR KYNG 211751Z 19004KT 1/8SM FG OVC001 05/05 A3006 RMK AO2 SLP187 4/003
                 933004 60000 T00500050 10050 20028 58016 =
2018-01-21 11:51 METAR KYNG 211651Z 19004KT 1/8SM FG OVC001 04/04 A3009 RMK AO2 RAE45 SLP197
                 P0000 T00440044 =
2018-01-21 10:51 METAR KYNG 211551Z 18005KT 1/4SM -RA FG OVC001 04/04 A3011 RMK AO2 TWR VIS 3/4
                 SLP206 P0000 T00440039 =
2018-01-21 10:22 METAR KYNG 211522Z 18005KT 1/4SM -RA FG OVC001 04/04 A3012 RMK AO2 TWR VIS 3/4
                 P0000 T00390039 =
2018-01-21 09:51 METAR KYNG 211451Z 17005KT 3/4SM -RA BR OVC001 04/03 A3011 RMK AO2 SLP205 P0000
                 60000 T00390033 53005 =
2018-01-21 08:51 METAR KYNG 211351Z 18005KT 3/4SM -RA BR OVC001 03/03 A3010 RMK AO2 SLP202 P0000
                 T00330033 =
2018-01-21 08:29 METAR KYNG 211329Z 15006KT 1/4SM -RA FG OVC001 03/02 A3009 RMK AO2 TWR VIS 3/4
                 P0000 T00330022 =
2018-01-21 07:51 METAR KYNG 211251Z 17005KT 3/4SM -RA BR OVC001 03/02 A3010 RMK AO2 SLP202 P0000
                 T00280022 =
2018-01-21 07:41 METAR KYNG 211241Z 17005KT 1 1/2SM -RA BR OVC002 03/02 A3010 RMK AO2 P0000
                 T00280022 =
2018-01-21 07:29 METAR KYNG 211229Z 17005KT 2 1/2SM -RA BR OVC003 03/02 A3010 RMK AO2 P0000
                 T00280022 =
2018-01-21 07:08 METAR KYNG 211208Z 18004KT 4SM -RA BR BKN004 OVC011 03/02 A3010 RMK AO2 P0000
                 T00330022 =
2018-01-21 06:51 METAR KYNG 211151Z 19004KT 7SM -RA FEW005 OVC014 03/02 A3010 RMK AO2 RAB46
                 SLP201 4/003 P0000 60000 T00330022 10039 20033 53001 =
2018-01-21 06:36 METAR KYNG 211136Z 19004KT 9SM FEW005 OVC014 04/01 A3010 RMK AO2 T00390011 =
2018-01-21 05:51 METAR KYNG 211051Z 19005KT 10SM OVC016 04/01 A3009 RMK AO2 SLP199 T00390006 =
2018-01-21 04:51 METAR KYNG 210951Z 20004KT 10SM OVC019 04/00 A3009 RMK AO2 SLP197 T00390000 =
2018-01-21 03:51 METAR KYNG 210851Z 21005KT 10SM OVC019 04/00 A3009 RMK AO2 SLP198 T00390000
                 50004 =
2018-01-21 02:51 METAR KYNG 210751Z 21003KT 10SM FEW013 OVC024 04/M01 A3010 RMK AO2 SLP199
                 T00391006 =
2018-01-21 01:51 METAR KYNG 210651Z 20004KT 10SM SCT013 OVC024 04/M01 A3008 RMK AO2 SLP195
                 T00391006 =
2018-01-21 01:26 METAR KYNG 210626Z 20004KT 10SM SCT013 OVC024 04/M01 A3008 RMK AO2 T00391011 =
2018-01-21 00:51 METAR KYNG 210551Z 20004KT 10SM OVC013 04/M01 A3008 RMK AO2 SLP194 4/004
                 T00391011 10039 20022 50004 =
2018-01-21 00:17 METAR KYNG 210517Z 22007KT 10SM OVC014 04/M01 A3009 =
2018-01-20 23:51 METAR KYNG 210451Z 22007KT 10SM OVC016 04/M01 A3009 RMK AO2 SLP198 T00391011
                 400560006 =
2018-01-20 22:51 METAR KYNG 210351Z 23009KT 10SM OVC017 03/M01 A3007 RMK AO2 SLP193 T00331011 =
2018-01-20 22:13 METAR KYNG 210313Z 22009KT 10SM BKN022 02/M03 A3007 RMK AO2 T00221028 =
2018-01-20 21:51 METAR KYNG 210251Z 23007KT 10SM CLR 02/M03 A3007 RMK AO2 SLP192 T00221028 51008
                 =
2018-01-20 20:51 METAR KYNG 210151Z 22007KT 10SM CLR 03/M03 A3006 RMK AO2 SLP190 T00281028 =
2018-01-20 19:51 METAR KYNG 210051Z 22008KT 10SM FEW250 03/M03 A3006 RMK AO2 SLP189 T00331033 =
2018-01-20 18:51 METAR KYNG 202351Z 21007KT 10SM SCT250 03/M03 A3004 RMK AO2 SLP184 4/004
                 T00331033 10056 20033 51018 =
2018-01-20 17:51 METAR KYNG 202251Z 21005KT 10SM BKN250 04/M03 A3003 RMK AO2 SLP178 T00441033 =
2018-01-20 16:51 METAR KYNG 202151Z 24007KT 10SM BKN250 05/M03 A3002 RMK AO2 SLP175 T00501028 =
2018-01-20 15:51 METAR KYNG 202051Z 22012KT 10SM BKN240 06/M03 A2999 RMK AO2 SLP164 T00561028
                 53003 =

Support USWX by starting your Amazon purchase here.